Time;durP1;ratioP1;P1;durP2;ratioP2;P2;SDS_P1;SDS_P2;PMS_P1;PMS_P2;Temp;Humidity;BMP_temperature;BMP_pressure;BME280_temperature;BME280_humidity;BME280_pressure;Samples;Min_cycle;Max_cycle;Signal;HPM_P1;HPM_P2
2023/05/29 00:01:50;;;;;;;12.37;11.47;;;;;;;13.69;100.00;92637.31;5024285;28;20242;-76
2023/05/29 00:04:15;;;;;;;12.20;11.20;;;;;;;13.80;100.00;92641.25;5011384;28;20227;-75
2023/05/29 00:06:41;;;;;;;12.20;11.13;;;;;;;13.71;100.00;92635.13;5009933;28;20210;-75
2023/05/29 00:09:06;;;;;;;11.60;10.60;;;;;;;13.84;100.00;92639.56;5023823;28;20206;-76
2023/05/29 00:11:32;;;;;;;11.00;10.17;;;;;;;13.61;100.00;92624.09;5011445;28;20271;-76
2023/05/29 00:13:57;;;;;;;10.63;9.83;;;;;;;13.64;100.00;92640.03;5012062;28;20251;-75
2023/05/29 00:16:23;;;;;;;12.20;11.30;;;;;;;13.66;100.00;92632.66;5015921;28;20175;-76
2023/05/29 00:18:49;;;;;;;11.20;10.40;;;;;;;13.65;100.00;92640.81;5011878;28;20432;-75
2023/05/29 00:21:16;;;;;;;11.93;10.90;;;;;;;13.72;100.00;92641.97;5011884;28;20251;-75
2023/05/29 00:23:42;;;;;;;11.30;10.60;;;;;;;13.66;100.00;92648.38;5017544;28;20178;-75
2023/05/29 00:26:07;;;;;;;11.37;10.67;;;;;;;13.77;100.00;92652.34;5010727;28;20219;-75
2023/05/29 00:28:35;;;;;;;11.67;10.87;;;;;;;13.78;100.00;92648.63;5011786;28;20196;-76
2023/05/29 00:31:00;;;;;;;14.47;11.43;;;;;;;13.63;100.00;92633.25;5006097;28;20223;-75
2023/05/29 00:33:26;;;;;;;11.47;10.57;;;;;;;13.68;100.00;92637.59;4995975;28;20314;-75
2023/05/29 00:35:51;;;;;;;10.37;9.73;;;;;;;13.81;100.00;92650.66;5010933;28;20235;-76
2023/05/29 00:38:16;;;;;;;12.33;11.40;;;;;;;13.65;100.00;92646.06;5011639;28;20205;-75
2023/05/29 00:40:42;;;;;;;11.53;10.60;;;;;;;13.60;100.00;92641.72;5010687;28;20219;-75
2023/05/29 00:43:07;;;;;;;11.77;10.97;;;;;;;13.51;100.00;92640.06;5011357;28;20223;-75
2023/05/29 00:45:36;;;;;;;11.70;11.00;;;;;;;13.60;100.00;92639.09;5010302;28;20224;-75
2023/05/29 00:48:03;;;;;;;11.93;11.03;;;;;;;13.76;100.00;92650.03;5012340;28;20196;-76
2023/05/29 00:50:28;;;;;;;11.90;10.83;;;;;;;13.86;100.00;92641.91;4993587;28;20226;-75
2023/05/29 00:52:54;;;;;;;12.10;10.40;;;;;;;13.62;100.00;92623.81;5010709;28;20211;-75
2023/05/29 00:55:20;;;;;;;11.60;10.70;;;;;;;13.72;100.00;92631.47;5010200;28;20227;-75
2023/05/29 00:57:47;;;;;;;11.83;11.13;;;;;;;13.75;100.00;92633.50;5011843;28;20191;-75
2023/05/29 01:00:14;;;;;;;11.73;10.80;;;;;;;13.50;100.00;92628.78;5007102;28;20254;-75
2023/05/29 01:02:44;;;;;;;12.97;11.70;;;;;;;13.56;100.00;92632.84;4994554;28;20191;-75
2023/05/29 01:05:14;;;;;;;10.77;10.07;;;;;;;13.56;100.00;92627.63;5010245;28;20227;-76
2023/05/29 01:07:41;;;;;;;11.03;10.33;;;;;;;13.50;100.00;92620.94;5011906;28;20206;-75
2023/05/29 01:10:07;;;;;;;13.13;11.77;;;;;;;13.49;100.00;92615.97;5010234;28;20234;-75
2023/05/29 01:13:21;;;;;;;11.17;10.47;;;;;;;13.60;100.00;92623.34;5010715;28;20337;-76
2023/05/29 01:16:00;;;;;;;11.43;10.70;;;;;;;13.51;100.00;92624.34;5010209;28;20238;-75
2023/05/29 01:18:46;;;;;;;11.60;10.70;;;;;;;13.50;100.00;92628.78;5018454;28;20221;-75
2023/05/29 01:22:08;;;;;;;12.00;11.00;;;;;;;13.60;100.00;92633.84;5009174;28;20242;-76
2023/05/29 01:24:48;;;;;;;12.60;11.57;;;;;;;13.32;100.00;92628.94;5011538;28;20296;-76
2023/05/29 01:27:17;;;;;;;12.00;11.20;;;;;;;13.47;100.00;92636.47;5010630;28;20176;-75
2023/05/29 01:29:43;;;;;;;12.73;11.80;;;;;;;13.47;100.00;92634.63;5014000;28;20234;-76
2023/05/29 01:32:09;;;;;;;12.37;11.57;;;;;;;13.47;100.00;92639.88;5011331;28;20238;-75
2023/05/29 01:34:35;;;;;;;16.37;11.87;;;;;;;13.48;100.00;92636.19;5011658;28;20259;-75
2023/05/29 01:37:00;;;;;;;11.73;10.73;;;;;;;13.39;100.00;92643.19;5007183;28;20174;-75
2023/05/29 01:39:26;;;;;;;12.37;11.27;;;;;;;13.43;100.00;92635.53;5010624;28;20223;-75
2023/05/29 01:41:54;;;;;;;11.90;10.80;;;;;;;13.53;100.00;92632.66;5016526;28;20183;-69
2023/05/29 01:44:21;;;;;;;12.57;11.67;;;;;;;13.57;100.00;92629.16;5018730;28;20239;-72
2023/05/29 01:46:47;;;;;;;11.53;10.67;;;;;;;13.70;100.00;92633.59;5010085;28;20195;-72
2023/05/29 01:49:14;;;;;;;11.97;10.90;;;;;;;13.74;100.00;92625.91;5009800;28;20219;-72
2023/05/29 01:51:41;;;;;;;11.97;11.17;;;;;;;13.65;100.00;92628.47;5010932;28;20186;-72
2023/05/29 01:54:06;;;;;;;12.80;11.77;;;;;;;13.77;100.00;92628.72;5010291;28;20299;-71
2023/05/29 01:56:32;;;;;;;12.97;11.97;;;;;;;13.82;100.00;92625.97;5014380;28;20186;-72
2023/05/29 01:59:00;;;;;;;12.33;11.43;;;;;;;13.77;100.00;92607.75;5017582;28;20179;-72
2023/05/29 02:01:26;;;;;;;13.10;12.00;;;;;;;13.92;100.00;92611.84;5022488;28;20183;-72
2023/05/29 02:03:51;;;;;;;12.80;11.70;;;;;;;13.99;100.00;92617.47;5020572;28;20195;-74
2023/05/29 02:06:16;;;;;;;13.03;12.03;;;;;;;13.97;100.00;92617.75;5031487;28;20263;-72
2023/05/29 02:08:42;;;;;;;12.30;11.40;;;;;;;13.97;100.00;92612.50;5021770;28;20239;-72
2023/05/29 02:11:07;;;;;;;13.00;11.87;;;;;;;14.10;100.00;92630.03;5001132;28;20257;-72
2023/05/29 02:13:34;;;;;;;12.00;11.20;;;;;;;14.13;100.00;92620.81;5024774;28;20271;-71
2023/05/29 02:15:59;;;;;;;13.83;12.67;;;;;;;14.09;100.00;92620.63;5013544;28;20215;-69
2023/05/29 02:18:25;;;;;;;12.97;12.17;;;;;;;14.16;100.00;92617.56;5015407;28;20255;-69
2023/05/29 02:20:51;;;;;;;12.57;11.57;;;;;;;14.13;100.00;92621.56;5016991;28;20349;-71
2023/05/29 02:23:16;;;;;;;12.97;11.97;;;;;;;13.90;100.00;92616.63;5013615;28;20183;-71
2023/05/29 02:25:42;;;;;;;13.83;11.57;;;;;;;13.87;100.00;92618.00;5013212;28;20254;-71
2023/05/29 02:28:07;;;;;;;12.20;11.30;;;;;;;13.82;100.00;92619.97;5013552;28;20214;-71
2023/05/29 02:30:35;;;;;;;12.47;11.67;;;;;;;13.90;100.00;92621.88;5013497;28;20237;-71
2023/05/29 02:33:00;;;;;;;12.40;11.40;;;;;;;13.74;100.00;92618.81;5014784;28;20214;-71
2023/05/29 02:35:26;;;;;;;13.37;12.13;;;;;;;13.74;100.00;92624.03;5013138;28;20339;-71
2023/05/29 02:37:52;;;;;;;12.47;11.67;;;;;;;13.90;100.00;92622.63;5013547;28;20195;-71
2023/05/29 02:40:18;;;;;;;13.30;12.20;;;;;;;13.86;100.00;92620.91;5012643;28;20227;-72
2023/05/29 02:42:44;;;;;;;12.70;11.67;;;;;;;13.76;100.00;92624.53;5013667;28;20198;-71
2023/05/29 02:45:10;;;;;;;12.30;11.40;;;;;;;13.73;100.00;92619.09;5012574;28;20283;-71
2023/05/29 02:47:36;;;;;;;12.63;11.83;;;;;;;13.78;100.00;92626.88;5015129;28;20222;-71
2023/05/29 02:50:03;;;;;;;13.17;12.27;;;;;;;13.74;100.00;92628.53;5015462;28;20217;-71
2023/05/29 02:52:30;;;;;;;12.50;11.53;;;;;;;13.73;100.00;92622.50;5013328;28;20226;-72
2023/05/29 02:54:56;;;;;;;11.97;11.17;;;;;;;13.62;100.00;92620.41;5013826;28;20223;-71
2023/05/29 02:57:22;;;;;;;12.53;11.63;;;;;;;13.51;100.00;92619.09;5012217;28;20211;-71
2023/05/29 02:59:47;;;;;;;12.00;11.03;;;;;;;13.49;100.00;92626.47;5013251;28;20282;-71
2023/05/29 03:02:12;;;;;;;12.43;11.33;;;;;;;13.63;100.00;92630.63;5018960;28;20423;-71
2023/05/29 03:04:38;;;;;;;12.97;12.07;;;;;;;13.73;100.00;92633.00;5015692;28;20253;-71
2023/05/29 03:07:03;;;;;;;12.07;11.20;;;;;;;13.68;100.00;92620.00;5012911;28;20179;-72
2023/05/29 03:09:29;;;;;;;13.40;11.40;;;;;;;13.68;100.00;92634.97;5012053;28;20900;-71
2023/05/29 03:11:54;;;;;;;12.63;11.83;;;;;;;13.81;100.00;92637.56;5016849;28;20228;-71
2023/05/29 03:14:21;;;;;;;13.23;12.40;;;;;;;13.90;100.00;92633.13;5004708;28;20220;-71
2023/05/29 03:16:47;;;;;;;12.63;11.40;;;;;;;13.81;100.00;92628.88;4995695;28;20219;-71
2023/05/29 03:19:13;;;;;;;12.10;11.30;;;;;;;13.95;100.00;92646.16;5011231;28;20223;-72
2023/05/29 03:21:38;;;;;;;12.33;11.33;;;;;;;14.23;100.00;92644.97;5012533;28;20207;-71
2023/05/29 03:24:04;;;;;;;12.13;11.23;;;;;;;14.35;100.00;92632.09;5012620;28;20266;-71
2023/05/29 03:26:29;;;;;;;12.17;11.13;;;;;;;14.46;100.00;92636.00;5012522;28;20253;-71
2023/05/29 03:28:55;;;;;;;12.93;11.73;;;;;;;14.87;100.00;92637.59;5011547;28;20183;-72
2023/05/29 03:31:21;;;;;;;12.47;11.47;;;;;;;16.00;97.88;92628.53;5012495;28;20210;-71
2023/05/29 03:33:47;;;;;;;11.77;10.90;;;;;;;16.24;95.12;92636.75;5012808;28;20271;-71
2023/05/29 03:36:13;;;;;;;12.00;11.10;;;;;;;16.17;96.20;92651.47;5012733;28;20249;-71
2023/05/29 03:38:38;;;;;;;11.90;11.00;;;;;;;15.91;98.16;92644.34;5012952;28;20191;-71
2023/05/29 03:41:03;;;;;;;11.07;10.27;;;;;;;15.70;99.58;92653.16;5011628;28;20264;-71
2023/05/29 03:43:29;;;;;;;12.37;11.20;;;;;;;15.61;100.00;92662.91;5012154;28;20207;-71
2023/05/29 03:45:54;;;;;;;12.03;10.93;;;;;;;15.72;100.00;92666.81;5008148;28;20218;-71
2023/05/29 03:48:19;;;;;;;12.03;11.13;;;;;;;15.77;100.00;92661.38;5014468;28;20218;-72
2023/05/29 03:50:47;;;;;;;12.27;11.37;;;;;;;15.80;100.00;92671.28;5021483;28;20219;-72
2023/05/29 03:53:12;;;;;;;12.00;10.87;;;;;;;15.71;100.00;92665.22;5021817;28;20243;-71
2023/05/29 03:55:38;;;;;;;11.60;10.47;;;;;;;15.80;100.00;92668.66;5021564;28;20226;-71
2023/05/29 03:58:03;;;;;;;11.43;10.57;;;;;;;15.77;100.00;92674.53;5015215;28;20178;-71
2023/05/29 04:00:29;;;;;;;12.43;11.27;;;;;;;15.56;100.00;92668.31;5016754;28;20768;-72
2023/05/29 04:02:55;;;;;;;11.73;10.93;;;;;;;15.68;100.00;92681.66;5010532;28;20214;-73
2023/05/29 04:05:21;;;;;;;12.57;11.33;;;;;;;15.75;100.00;92684.63;5015150;28;20226;-72
2023/05/29 04:07:46;;;;;;;11.93;11.13;;;;;;;15.39;100.00;92641.97;5011754;28;20192;-74
2023/05/29 04:10:12;;;;;;;12.23;11.33;;;;;;;15.55;100.00;92693.06;5007163;28;20253;-70
2023/05/29 04:12:38;;;;;;;12.07;11.07;;;;;;;15.71;100.00;92688.94;5008584;28;20338;-70
2023/05/29 04:15:04;;;;;;;12.13;11.23;;;;;;;15.69;100.00;92683.19;5009464;28;20781;-72
2023/05/29 04:17:29;;;;;;;11.20;10.40;;;;;;;15.93;100.00;92689.59;5010893;28;20191;-72
2023/05/29 04:19:54;;;;;;;12.57;11.57;;;;;;;16.21;100.00;92690.06;5010363;28;20219;-73
2023/05/29 04:22:20;;;;;;;11.40;10.53;;;;;;;16.35;100.00;92679.34;5010714;28;20191;-73
2023/05/29 04:24:46;;;;;;;12.57;11.63;;;;;;;16.56;99.34;92681.06;5009876;28;20230;-75
2023/05/29 04:27:12;;;;;;;10.37;9.77;;;;;;;16.74;97.66;92676.53;5008791;28;20279;-73
2023/05/29 04:29:40;;;;;;;10.87;10.07;;;;;;;16.84;96.88;92692.78;5003577;28;20235;-72
2023/05/29 04:32:08;;;;;;;12.43;11.40;;;;;;;16.86;97.37;92685.34;5007134;28;20227;-72
2023/05/29 04:34:34;;;;;;;10.90;10.00;;;;;;;16.75;97.97;92673.56;5016419;28;20232;-76
2023/05/29 04:36:59;;;;;;;12.27;11.27;;;;;;;16.92;98.09;92688.56;5024862;28;20183;-75
2023/05/29 04:39:25;;;;;;;11.30;10.60;;;;;;;16.92;98.42;92696.47;5026585;28;20233;-75
2023/05/29 04:41:51;;;;;;;11.77;10.77;;;;;;;16.89;99.02;92689.97;5014399;28;20206;-75
2023/05/29 04:44:17;;;;;;;11.27;10.57;;;;;;;17.12;98.38;92704.50;5015311;28;20290;-75
2023/05/29 04:46:44;;;;;;;10.63;9.80;;;;;;;17.35;96.09;92691.84;5027688;28;20172;-75
2023/05/29 04:49:10;;;;;;;10.93;10.20;;;;;;;17.63;95.04;92700.13;5017003;28;20195;-75
2023/05/29 04:51:36;;;;;;;11.00;10.20;;;;;;;17.86;92.62;92710.09;5024846;28;20188;-75
2023/05/29 04:54:02;;;;;;;10.60;9.80;;;;;;;18.10;90.22;92698.91;4991293;28;20190;-76
2023/05/29 04:56:28;;;;;;;10.13;9.43;;;;;;;18.77;86.85;92715.34;5003620;28;20196;-76
2023/05/29 04:58:54;;;;;;;9.73;9.13;;;;;;;19.19;82.75;92706.94;5019887;28;20218;-76
2023/05/29 05:01:19;;;;;;;10.13;9.53;;;;;;;19.56;80.70;92721.03;5009843;28;20247;-76
2023/05/29 05:03:45;;;;;;;10.13;9.50;;;;;;;19.68;80.26;92726.34;5010773;28;20202;-76
2023/05/29 05:06:12;;;;;;;10.47;9.57;;;;;;;19.60;78.49;92715.84;5019376;28;20229;-76
2023/05/29 05:08:38;;;;;;;9.70;9.00;;;;;;;20.14;75.26;92736.50;5012611;28;20198;-76
2023/05/29 05:11:06;;;;;;;9.90;9.20;;;;;;;20.11;74.01;92731.84;5013352;28;20240;-76
2023/05/29 05:13:31;;;;;;;9.33;8.83;;;;;;;20.08;72.78;92727.19;5014886;28;20207;-76
2023/05/29 05:15:57;;;;;;;10.83;10.07;;;;;;;20.12;73.19;92743.22;5010257;28;20215;-76
2023/05/29 05:18:23;;;;;;;9.90;9.30;;;;;;;19.81;74.69;92737.72;5010715;28;20201;-76
2023/05/29 05:20:49;;;;;;;9.00;8.50;;;;;;;19.63;77.24;92729.19;5011224;28;20238;-76
2023/05/29 05:23:14;;;;;;;10.63;9.70;;;;;;;20.42;76.26;92739.22;5010666;28;20191;-76
2023/05/29 05:25:40;;;;;;;15.33;9.33;;;;;;;20.77;70.92;92750.81;5010646;28;20304;-75
2023/05/29 05:28:05;;;;;;;10.53;9.73;;;;;;;22.42;65.70;92754.22;5010879;28;20181;-75
2023/05/29 05:30:31;;;;;;;10.40;9.53;;;;;;;21.79;68.85;92748.25;5010713;28;20225;-76
2023/05/29 05:32:57;;;;;;;10.67;9.70;;;;;;;23.22;62.86;92741.84;5012527;28;20241;-75
2023/05/29 05:35:23;;;;;;;9.93;9.23;;;;;;;22.70;62.21;92760.97;5009472;28;20240;-76
2023/05/29 05:37:48;;;;;;;9.70;9.10;;;;;;;22.14;64.60;92746.41;5014571;28;20183;-76
2023/05/29 05:40:13;;;;;;;10.07;9.37;;;;;;;21.80;66.99;92737.28;5009653;28;20228;-76
2023/05/29 05:42:39;;;;;;;9.60;8.88;;;;;;;21.58;66.37;92737.06;5015327;28;20182;-76
2023/05/29 05:45:06;;;;;;;10.13;9.30;;;;;;;21.47;67.71;92741.34;5013848;28;20278;-76
2023/05/29 05:47:31;;;;;;;9.17;8.67;;;;;;;22.83;61.79;92733.09;5010111;28;20258;-75
2023/05/29 05:49:57;;;;;;;9.68;9.00;;;;;;;24.00;58.81;92744.75;5009975;28;21146;-76
2023/05/29 05:52:24;;;;;;;10.63;9.63;;;;;;;23.40;60.42;92754.38;5013964;28;20205;-76
2023/05/29 05:54:50;;;;;;;9.60;8.93;;;;;;;22.19;66.06;92744.22;5009431;28;20862;-76
2023/05/29 05:57:15;;;;;;;9.90;9.10;;;;;;;21.52;65.84;92736.56;4992972;28;20247;-75
2023/05/29 05:59:41;;;;;;;9.00;8.30;;;;;;;21.38;68.29;92746.03;5009303;28;20229;-75
2023/05/29 06:02:06;;;;;;;9.02;8.38;;;;;;;21.64;67.03;92730.38;4993066;28;20208;-76
2023/05/29 06:04:32;;;;;;;10.73;9.68;;;;;;;23.37;61.60;92749.75;5010523;28;20237;-76
2023/05/29 06:06:57;;;;;;;10.75;9.88;;;;;;;23.40;62.37;92751.72;5012450;28;20194;-75
2023/05/29 06:09:23;;;;;;;10.98;10.00;;;;;;;23.56;60.25;92757.69;5009648;28;20227;-76
2023/05/29 06:11:48;;;;;;;10.75;9.93;;;;;;;22.53;63.36;92750.72;5005746;28;20234;-76
2023/05/29 06:14:14;;;;;;;11.25;10.45;;;;;;;22.18;65.21;92729.41;5013179;28;20234;-76
2023/05/29 06:16:40;;;;;;;11.52;10.65;;;;;;;22.07;64.64;92752.31;5010953;28;20179;-75
2023/05/29 06:19:05;;;;;;;12.27;10.38;;;;;;;22.39;65.17;92762.91;5010024;28;21061;-75
2023/05/29 06:21:31;;;;;;;11.65;10.52;;;;;;;22.03;63.85;92756.03;5014216;28;20258;-75
2023/05/29 06:23:57;;;;;;;11.87;10.97;;;;;;;21.90;65.50;92752.69;5010194;28;20716;-76
2023/05/29 06:26:26;;;;;;;12.63;11.25;;;;;;;22.02;65.66;92760.56;5013121;28;20282;-73
2023/05/29 06:28:52;;;;;;;11.32;10.52;;;;;;;22.22;66.19;92764.06;5021787;28;20191;-72
2023/05/29 06:31:18;;;;;;;12.07;10.85;;;;;;;22.66;62.76;92768.13;5010409;28;20270;-70
2023/05/29 06:33:44;;;;;;;11.85;10.95;;;;;;;23.30;60.86;92765.59;5011000;28;20249;-70
2023/05/29 06:36:10;;;;;;;13.90;10.77;;;;;;;23.94;59.70;92756.06;5013501;28;20241;-68
2023/05/29 06:38:36;;;;;;;11.75;10.27;;;;;;;22.64;63.58;92767.69;5010390;28;20196;-69
2023/05/29 06:41:01;;;;;;;10.80;9.90;;;;;;;22.44;64.10;92766.09;5009089;28;20263;-69
2023/05/29 06:43:27;;;;;;;11.02;9.77;;;;;;;22.12;65.68;92759.25;5009562;28;20201;-68
2023/05/29 06:45:53;;;;;;;10.15;9.45;;;;;;;22.04;65.56;92757.56;5009611;28;20215;-71
2023/05/29 06:48:18;;;;;;;12.35;10.00;;;;;;;22.84;63.54;92763.91;5011282;28;20237;-73
2023/05/29 06:50:44;;;;;;;10.60;9.80;;;;;;;22.45;63.48;92761.50;5003289;28;20232;-69
2023/05/29 06:53:09;;;;;;;11.75;10.68;;;;;;;22.33;64.00;92753.66;5010391;28;20220;-72
2023/05/29 06:55:35;;;;;;;10.52;9.63;;;;;;;22.19;65.53;92765.50;5013651;28;20252;-69
2023/05/29 06:58:00;;;;;;;10.77;9.80;;;;;;;21.32;67.61;92760.69;5016851;28;20736;-69
2023/05/29 07:00:27;;;;;;;11.23;10.30;;;;;;;21.14;69.86;92754.13;5012303;28;20234;-70
2023/05/29 07:02:52;;;;;;;10.85;10.05;;;;;;;20.76;70.87;92757.25;5024918;28;20179;-69
2023/05/29 07:05:18;;;;;;;10.38;9.57;;;;;;;20.79;69.69;92723.94;5014323;28;20443;-68
2023/05/29 07:07:43;;;;;;;10.30;9.50;;;;;;;21.51;68.03;92764.22;5017231;28;20329;-70
2023/05/29 07:10:09;;;;;;;9.90;9.13;;;;;;;20.80;71.68;92762.63;5019458;28;20233;-69
2023/05/29 07:12:35;;;;;;;9.63;8.93;;;;;;;20.62;71.97;92752.31;5012908;28;20289;-69
2023/05/29 07:15:00;;;;;;;10.03;9.37;;;;;;;20.78;71.45;92759.56;5006767;28;20231;-70
2023/05/29 07:17:25;;;;;;;9.90;9.10;;;;;;;20.48;72.00;92759.84;5013744;28;20193;-70
2023/05/29 07:19:51;;;;;;;10.27;9.43;;;;;;;19.62;76.19;92766.63;5015967;28;20226;-69
2023/05/29 07:22:16;;;;;;;9.77;9.13;;;;;;;20.04;76.26;92762.66;5017936;28;20206;-70
2023/05/29 07:24:42;;;;;;;9.70;9.00;;;;;;;19.61;76.34;92755.25;5013538;28;20229;-72
2023/05/29 07:27:07;;;;;;;9.50;9.00;;;;;;;18.78;78.14;92756.56;5014900;28;20202;-70
2023/05/29 07:29:32;;;;;;;10.00;9.20;;;;;;;19.87;75.81;92753.06;5013214;28;20228;-72
2023/05/29 07:31:58;;;;;;;9.53;9.00;;;;;;;20.39;74.19;92767.16;5022866;28;20309;-71
2023/05/29 07:34:23;;;;;;;9.10;8.60;;;;;;;21.03;71.87;92763.72;5013969;28;20237;-70
2023/05/29 07:37:06;;;;;;;10.03;9.13;;;;;;;21.03;71.31;92761.81;5022064;28;20177;-72
2023/05/29 07:39:33;;;;;;;9.00;8.50;;;;;;;21.11;71.98;92768.88;5013197;28;20234;-71
2023/05/29 07:42:01;;;;;;;9.57;9.07;;;;;;;21.04;69.33;92766.03;5012477;28;20187;-72
2023/05/29 07:44:26;;;;;;;10.80;8.93;;;;;;;20.61;72.29;92761.38;5012998;28;20218;-70
2023/05/29 07:46:52;;;;;;;9.70;9.10;;;;;;;21.23;69.67;92765.38;5011802;28;20209;-71
2023/05/29 07:49:17;;;;;;;10.17;9.37;;;;;;;20.62;72.39;92760.25;5012206;28;20329;-72
2023/05/29 07:51:43;;;;;;;9.23;8.73;;;;;;;21.16;70.23;92754.56;5019070;28;20189;-71
2023/05/29 07:54:08;;;;;;;9.77;9.02;;;;;;;21.05;69.41;92764.91;5016602;28;20218;-72
2023/05/29 07:56:33;;;;;;;9.20;8.70;;;;;;;21.88;65.41;92749.59;5012335;28;20191;-72
2023/05/29 07:58:59;;;;;;;9.88;8.82;;;;;;;21.91;65.60;92761.44;4999214;28;20218;-73
2023/05/29 08:01:26;;;;;;;9.13;8.57;;;;;;;20.73;69.53;92717.34;5011764;28;20251;-72
2023/05/29 08:03:52;;;;;;;9.70;9.10;;;;;;;20.77;70.19;92758.00;5011460;28;20915;-73
2023/05/29 08:06:17;;;;;;;10.07;9.37;;;;;;;21.60;68.84;92769.38;5011408;28;20282;-73
2023/05/29 08:08:43;;;;;;;9.85;9.15;;;;;;;21.84;66.56;92771.88;5012520;28;20251;-73
2023/05/29 08:11:08;;;;;;;10.07;9.13;;;;;;;21.49;67.86;92760.38;4998634;28;20317;-73
2023/05/29 08:13:34;;;;;;;9.53;8.83;;;;;;;21.87;66.21;92763.22;5011432;28;20207;-73
2023/05/29 08:15:59;;;;;;;8.95;8.43;;;;;;;22.10;65.19;92777.47;5012975;28;20233;-74
2023/05/29 08:18:26;;;;;;;9.90;9.30;;;;;;;22.87;62.46;92784.53;5012651;28;20193;-74
2023/05/29 08:20:52;;;;;;;10.10;9.20;;;;;;;22.19;62.03;92775.41;5008186;28;20251;-73
2023/05/29 08:23:18;;;;;;;9.40;8.90;;;;;;;21.41;64.35;92766.59;5009881;28;20191;-73
2023/05/29 08:25:44;;;;;;;10.05;9.35;;;;;;;21.57;64.97;92776.13;5009255;28;20215;-72
2023/05/29 08:28:09;;;;;;;10.57;9.68;;;;;;;20.84;68.31;92763.53;5011443;28;20190;-72
2023/05/29 08:30:34;;;;;;;9.93;9.23;;;;;;;21.42;67.81;92760.19;5012046;28;20925;-72
2023/05/29 08:33:00;;;;;;;9.52;9.02;;;;;;;21.65;70.57;92775.19;5012398;28;20223;-73
2023/05/29 08:35:25;;;;;;;10.68;9.80;;;;;;;21.64;69.19;92780.84;5010754;28;20768;-73
2023/05/29 08:37:51;;;;;;;10.38;9.77;;;;;;;21.95;68.11;92780.91;5019253;28;20912;-72
2023/05/29 08:40:17;;;;;;;10.35;9.68;;;;;;;22.78;64.51;92791.94;5010670;28;20244;-72
2023/05/29 08:43:20;;;;;;;9.95;8.95;;;;;;;22.42;65.00;92784.28;5015128;28;20197;-72
2023/05/29 08:45:50;;;;;;;9.55;8.95;;;;;;;21.99;64.51;92777.19;5009587;28;20440;-72
2023/05/29 08:48:18;;;;;;;9.43;8.93;;;;;;;21.81;67.43;92764.59;5014366;28;20209;-73
2023/05/29 08:50:46;;;;;;;9.07;8.57;;;;;;;21.51;68.08;92763.47;5000886;28;20225;-73
2023/05/29 08:53:15;;;;;;;10.10;9.40;;;;;;;21.52;66.58;92755.16;5014922;28;20225;-73
2023/05/29 08:55:40;;;;;;;9.90;9.30;;;;;;;21.49;63.71;92763.03;5012803;28;20216;-72
2023/05/29 08:58:06;;;;;;;10.02;9.20;;;;;;;21.24;66.33;92751.00;5012069;28;20177;-72
2023/05/29 09:00:34;;;;;;;9.93;9.23;;;;;;;21.19;70.43;92752.00;5010431;28;20227;-72
2023/05/29 09:02:59;;;;;;;9.85;9.10;;;;;;;21.35;65.77;92741.41;5012257;28;20198;-72
2023/05/29 09:05:29;;;;;;;9.93;9.13;;;;;;;21.61;64.83;92754.97;5016607;28;20234;-73
2023/05/29 09:07:55;;;;;;;9.85;9.25;;;;;;;21.21;69.09;92751.66;5020660;28;20175;-70
2023/05/29 09:10:22;;;;;;;9.98;9.27;;;;;;;20.98;67.14;92750.69;5009986;28;20228;-76
2023/05/29 09:12:49;;;;;;;10.55;9.80;;;;;;;21.41;65.79;92748.00;5010086;28;20283;-75
2023/05/29 09:15:18;;;;;;;9.15;8.65;;;;;;;22.13;61.85;92758.16;4993173;28;20744;-75
2023/05/29 09:17:49;;;;;;;10.38;9.68;;;;;;;21.70;65.59;92748.38;5009157;28;20187;-75
2023/05/29 09:20:17;;;;;;;9.75;8.63;;;;;;;22.06;65.71;92750.00;5011672;28;20241;-74
2023/05/29 09:22:52;;;;;;;10.60;9.87;;;;;;;20.64;68.19;92744.78;5014726;28;20274;-75
2023/05/29 09:25:21;;;;;;;9.93;9.30;;;;;;;20.57;70.35;92739.28;5009326;28;20236;-75
2023/05/29 09:27:46;;;;;;;10.33;9.43;;;;;;;21.30;66.77;92744.31;5008829;28;20210;-74
2023/05/29 09:30:30;;;;;;;10.52;9.85;;;;;;;21.25;65.54;92733.94;5009300;28;20227;-75
2023/05/29 09:32:56;;;;;;;10.43;9.73;;;;;;;21.37;66.91;92734.63;5008461;28;20221;-75
2023/05/29 09:35:21;;;;;;;10.25;9.63;;;;;;;21.71;66.28;92731.31;5014567;28;20221;-75
2023/05/29 09:37:47;;;;;;;9.70;9.18;;;;;;;21.52;66.43;92735.78;5008176;28;20282;-75
2023/05/29 09:40:12;;;;;;;10.57;9.85;;;;;;;21.81;63.41;92732.72;5005988;28;20216;-75
2023/05/29 09:42:37;;;;;;;11.93;9.02;;;;;;;21.20;63.97;92719.03;5009538;28;20244;-75
2023/05/29 09:45:04;;;;;;;12.35;11.55;;;;;;;21.91;61.15;92716.25;4992618;28;20226;-75
2023/05/29 09:47:33;;;;;;;10.02;9.30;;;;;;;21.60;63.61;92724.22;5007063;28;20190;-75
2023/05/29 09:50:00;;;;;;;9.70;8.98;;;;;;;21.97;61.48;92720.19;5009951;28;20249;-76
2023/05/29 09:52:30;;;;;;;9.75;9.05;;;;;;;21.00;63.66;92714.69;5011103;28;20212;-74
2023/05/29 09:54:56;;;;;;;9.98;9.18;;;;;;;20.96;66.30;92707.75;5007701;28;20292;-75
2023/05/29 09:57:23;;;;;;;10.25;9.40;;;;;;;20.78;67.17;92701.19;4993426;28;20252;-75
2023/05/29 09:59:51;;;;;;;10.35;9.63;;;;;;;21.28;65.42;92710.13;5010793;28;20221;-75
2023/05/29 10:02:18;;;;;;;10.40;9.75;;;;;;;20.38;65.70;92709.16;5001167;28;20197;-75
2023/05/29 10:04:46;;;;;;;9.70;9.00;;;;;;;20.63;65.70;92707.97;5013348;28;20258;-75
2023/05/29 10:07:27;;;;;;;10.70;9.90;;;;;;;21.06;65.56;92717.91;5008765;28;20205;-75
2023/05/29 10:10:00;;;;;;;10.10;9.50;;;;;;;21.43;62.83;92712.00;5009767;28;20230;-75
2023/05/29 10:12:27;;;;;;;9.63;9.13;;;;;;;21.10;66.73;92713.44;5011279;28;20238;-74
2023/05/29 10:14:57;;;;;;;10.17;9.43;;;;;;;21.56;65.32;92726.00;5016886;28;20241;-75
2023/05/29 10:17:26;;;;;;;10.75;9.82;;;;;;;22.01;60.28;92721.03;5017002;28;20189;-75
2023/05/29 10:19:53;;;;;;;10.30;9.60;;;;;;;22.35;59.28;92722.16;5003850;28;20249;-72
2023/05/29 10:22:21;;;;;;;9.95;9.35;;;;;;;23.00;58.05;92707.91;5023213;28;20210;-71
2023/05/29 10:24:49;;;;;;;9.73;9.13;;;;;;;23.21;55.33;92719.72;4991956;28;20238;-72
2023/05/29 10:27:15;;;;;;;10.00;9.30;;;;;;;23.39;55.37;92715.50;4997352;28;20506;-70
2023/05/29 10:29:53;;;;;;;10.18;9.30;;;;;;;22.40;59.39;92695.28;5013034;28;20228;-70
2023/05/29 10:32:27;;;;;;;9.85;9.25;;;;;;;22.38;60.02;92708.94;5008248;28;22265;-71
2023/05/29 10:35:14;;;;;;;9.07;8.57;;;;;;;22.80;58.11;92703.72;5017756;28;20261;-72
2023/05/29 10:38:10;;;;;;;10.35;9.57;;;;;;;22.84;60.10;92699.25;5002361;28;20192;-72
2023/05/29 10:40:35;;;;;;;9.95;9.05;;;;;;;23.01;58.79;92683.59;5012880;28;20229;-73
2023/05/29 10:43:00;;;;;;;9.77;9.07;;;;;;;23.24;56.00;92702.25;5013437;28;20208;-72
2023/05/29 10:45:29;;;;;;;9.68;8.98;;;;;;;23.07;55.49;92692.84;5021875;28;20227;-72
2023/05/29 10:47:54;;;;;;;9.57;9.07;;;;;;;21.50;60.35;92695.47;5019303;28;20254;-72
2023/05/29 10:50:46;;;;;;;9.93;9.32;;;;;;;21.63;61.00;92699.59;5012564;28;20220;-72
2023/05/29 10:53:22;;;;;;;10.32;9.52;;;;;;;21.79;59.83;92705.72;5013108;28;20216;-72
2023/05/29 10:55:48;;;;;;;10.07;9.38;;;;;;;21.63;64.38;92681.00;5023963;28;20681;-71
2023/05/29 10:58:24;;;;;;;10.85;10.07;;;;;;;21.62;69.72;92696.16;5016014;28;20216;-72
2023/05/29 11:00:53;;;;;;;10.88;10.18;;;;;;;20.84;83.18;92684.66;5005290;28;20277;-72
2023/05/29 11:03:21;;;;;;;11.75;10.95;;;;;;;20.96;82.88;92660.75;5018237;28;20197;-72
2023/05/29 11:06:07;;;;;;;11.20;10.35;;;;;;;20.78;83.84;92685.28;4995846;28;20224;-71
2023/05/29 11:08:55;;;;;;;11.20;10.40;;;;;;;20.81;83.28;92679.28;5015440;28;20278;-71
2023/05/29 11:11:27;;;;;;;10.18;9.48;;;;;;;19.66;85.88;92683.50;4997381;28;20261;-71
2023/05/29 11:13:55;;;;;;;11.98;11.02;;;;;;;19.58;95.86;92676.44;5012263;28;20241;-72
2023/05/29 11:16:23;;;;;;;11.97;11.10;;;;;;;20.17;92.53;92682.06;5012691;28;20190;-72
2023/05/29 11:18:49;;;;;;;12.47;11.43;;;;;;;20.64;90.35;92667.84;5007669;28;20190;-72
2023/05/29 11:21:53;;;;;;;11.75;10.90;;;;;;;20.50;93.20;92666.69;5012741;28;20233;-72